Terminal Aerodrome Forecast
Issued by NWS

Home | Current Version | Previous Version | Text Only | Print | Product List | Glossary On
Versions: 1 2 3 4 5 6 7 8 9 10 11 12 13
000
FTUS45 KTFX 231700
TAFLWT
TAF
KLWT 231735Z 2318/2418 27006KT P6SM SCT180
     FM232100 28010G22KT P6SM SCT090 BKN150
     FM240300 VRB06KT P6SM BKN150=

USA.gov is the U.S. government's official web portal to all federal, state and local government web resources and services.